sensor_id;sensor_type;location;lat;lon;timestamp;pressure;altitude;pressure_sealevel;temperature;humidity
24996;BME280;13016;52.162;21.034;2023-04-29T00:06:20;100408.69;;;12.79;41.34
24996;BME280;13016;52.162;21.034;2023-04-29T00:13:04;100405.72;;;12.40;42.22
24996;BME280;13016;52.162;21.034;2023-04-29T04:53:02;100325.95;;;13.12;41.45
24996;BME280;13016;52.162;21.034;2023-04-29T16:35:04;100059.88;;;22.70;28.52
24996;BME280;13016;52.162;21.034;2023-04-29T16:41:04;100065.79;;;22.42;28.78
24996;BME280;13016;52.162;21.034;2023-04-29T16:47:05;100066.57;;;22.09;29.21
24996;BME280;13016;52.162;21.034;2023-04-29T16:53:05;100070.75;;;22.15;29.14
24996;BME280;13016;52.162;21.034;2023-04-29T16:59:06;100078.05;;;22.17;29.12
24996;BME280;13016;52.162;21.034;2023-04-29T17:05:07;100084.14;;;22.07;29.40
24996;BME280;13016;52.162;21.034;2023-04-29T17:11:07;100089.82;;;22.06;29.46
24996;BME280;13016;52.162;21.034;2023-04-29T17:17:07;100088.09;;;22.08;29.42
24996;BME280;13016;52.162;21.034;2023-04-29T17:23:08;100092.69;;;22.10;29.65
24996;BME280;13016;52.162;21.034;2023-04-29T17:29:08;100090.56;;;21.78;30.34
24996;BME280;13016;52.162;21.034;2023-04-29T17:35:09;100091.16;;;21.76;30.70
24996;BME280;13016;52.162;21.034;2023-04-29T17:41:12;100095.38;;;21.80;31.25
24996;BME280;13016;52.162;21.034;2023-04-29T17:47:15;100102.98;;;21.86;33.27
24996;BME280;13016;52.162;21.034;2023-04-29T17:53:15;100101.86;;;21.80;34.37
24996;BME280;13016;52.162;21.034;2023-04-29T17:59:15;100106.92;;;21.75;34.82
24996;BME280;13016;52.162;21.034;2023-04-29T18:05:16;100105.81;;;21.77;34.97
24996;BME280;13016;52.162;21.034;2023-04-29T18:11:16;100109.83;;;21.41;36.18
24996;BME280;13016;52.162;21.034;2023-04-29T18:17:16;100110.80;;;21.35;36.49
24996;BME280;13016;52.162;21.034;2023-04-29T18:23:17;100120.02;;;21.41;36.24
24996;BME280;13016;52.162;21.034;2023-04-29T18:29:17;100117.63;;;21.38;36.80
24996;BME280;13016;52.162;21.034;2023-04-29T18:35:17;100123.27;;;21.39;36.67
24996;BME280;13016;52.162;21.034;2023-04-29T18:41:18;100125.48;;;21.19;37.24
24996;BME280;13016;52.162;21.034;2023-04-29T18:47:21;100132.17;;;21.07;37.62
24996;BME280;13016;52.162;21.034;2023-04-29T18:53:21;100137.31;;;20.93;38.12
24996;BME280;13016;52.162;21.034;2023-04-29T18:59:24;100143.19;;;20.56;39.00
24996;BME280;13016;52.162;21.034;2023-04-29T19:05:43;100141.95;;;20.69;39.02
24996;BME280;13016;52.162;21.034;2023-04-29T19:11:43;100147.39;;;20.63;39.16
24996;BME280;13016;52.162;21.034;2023-04-29T19:17:56;100150.49;;;20.59;39.06
24996;BME280;13016;52.162;21.034;2023-04-29T19:23:56;100157.86;;;20.69;38.74
24996;BME280;13016;52.162;21.034;2023-04-29T19:29:56;100156.02;;;20.73;38.58
24996;BME280;13016;52.162;21.034;2023-04-29T19:35:57;100152.34;;;20.75;38.35
24996;BME280;13016;52.162;21.034;2023-04-29T19:41:57;100147.30;;;20.74;38.58
24996;BME280;13016;52.162;21.034;2023-04-29T19:47:57;100154.73;;;20.70;38.58
24996;BME280;13016;52.162;21.034;2023-04-29T19:53:57;100151.52;;;20.70;38.50
24996;BME280;13016;52.162;21.034;2023-04-29T19:59:58;100149.16;;;20.68;38.63
24996;BME280;13016;52.162;21.034;2023-04-29T20:05:58;100151.41;;;20.55;38.81
24996;BME280;13016;52.162;21.034;2023-04-29T20:11:58;100154.62;;;20.32;39.39
24996;BME280;13016;52.162;21.034;2023-04-29T20:17:59;100157.86;;;20.22;40.03
24996;BME280;13016;52.162;21.034;2023-04-29T20:23:59;100155.61;;;20.21;39.72
24996;BME280;13016;52.162;21.034;2023-04-29T20:29:59;100154.76;;;19.98;40.17
24996;BME280;13016;52.162;21.034;2023-04-29T20:36:00;100150.35;;;19.77;40.83
24996;BME280;13016;52.162;21.034;2023-04-29T20:42:03;100151.76;;;19.60;41.25
24996;BME280;13016;52.162;21.034;2023-04-29T20:48:06;100147.34;;;19.75;41.15
24996;BME280;13016;52.162;21.034;2023-04-29T20:54:07;100143.38;;;19.79;41.30
24996;BME280;13016;52.162;21.034;2023-04-29T21:00:07;100143.22;;;19.84;41.30
24996;BME280;13016;52.162;21.034;2023-04-29T21:06:08;100145.20;;;19.75;41.65
24996;BME280;13016;52.162;21.034;2023-04-29T21:12:08;100144.25;;;19.87;41.27
24996;BME280;13016;52.162;21.034;2023-04-29T21:18:08;100148.55;;;19.88;41.19
24996;BME280;13016;52.162;21.034;2023-04-29T21:24:08;100152.14;;;19.74;41.63
24996;BME280;13016;52.162;21.034;2023-04-29T21:30:15;100153.85;;;19.45;42.65
24996;BME280;13016;52.162;21.034;2023-04-29T21:36:15;100151.07;;;19.30;42.95
24996;BME280;13016;52.162;21.034;2023-04-29T21:42:16;100146.91;;;19.43;42.64
24996;BME280;13016;52.162;21.034;2023-04-29T21:48:17;100147.95;;;19.29;42.84
24996;BME280;13016;52.162;21.034;2023-04-29T21:54:20;100143.58;;;18.99;43.64
24996;BME280;13016;52.162;21.034;2023-04-29T22:00:20;100145.48;;;19.18;43.29
24996;BME280;13016;52.162;21.034;2023-04-29T22:06:21;100150.97;;;19.20;43.25
24996;BME280;13016;52.162;21.034;2023-04-29T22:12:21;100146.00;;;19.09;43.61
24996;BME280;13016;52.162;21.034;2023-04-29T22:18:21;100146.23;;;18.87;44.10
24996;BME280;13016;52.162;21.034;2023-04-29T22:24:25;100142.84;;;18.67;44.60
24996;BME280;13016;52.162;21.034;2023-04-29T22:30:25;100144.00;;;18.72;44.75
24996;BME280;13016;52.162;21.034;2023-04-29T22:36:33;100142.11;;;18.96;44.42
24996;BME280;13016;52.162;21.034;2023-04-29T22:42:37;100141.10;;;18.97;44.51
24996;BME280;13016;52.162;21.034;2023-04-29T22:48:37;100141.67;;;18.99;45.09
24996;BME280;13016;52.162;21.034;2023-04-29T22:54:40;100140.97;;;19.06;44.83
24996;BME280;13016;52.162;21.034;2023-04-29T23:00:43;100149.73;;;19.11;44.68
24996;BME280;13016;52.162;21.034;2023-04-29T23:06:43;100157.98;;;19.18;44.55
24996;BME280;13016;52.162;21.034;2023-04-29T23:12:43;100159.28;;;19.01;45.08
24996;BME280;13016;52.162;21.034;2023-04-29T23:18:43;100153.54;;;19.00;45.31
24996;BME280;13016;52.162;21.034;2023-04-29T23:24:44;100149.52;;;18.86;45.91
24996;BME280;13016;52.162;21.034;2023-04-29T23:30:47;100149.27;;;18.49;47.66
24996;BME280;13016;52.162;21.034;2023-04-29T23:36:47;100153.05;;;18.71;49.27
24996;BME280;13016;52.162;21.034;2023-04-29T23:42:48;100148.84;;;18.56;50.72
24996;BME280;13016;52.162;21.034;2023-04-29T23:48:48;100142.09;;;18.26;52.01
24996;BME280;13016;52.162;21.034;2023-04-29T23:54:48;100136.66;;;18.28;52.07
